Time;durP1;ratioP1;P1;durP2;ratioP2;P2;SDS_P1;SDS_P2;PMS_P1;PMS_P2;Temp;Humidity;BMP_temperature;BMP_pressure;BME280_temperature;BME280_humidity;BME280_pressure;Samples;Min_cycle;Max_cycle;Signal;HPM_P1;HPM_P2
2022/07/29 00:01:56;;;;;;;8.65;4.72;;;15.30;99.90;;;;;;10488337;28;20020;-81
2022/07/29 00:06:56;;;;;;;9.52;4.78;;;15.30;99.90;;;;;;10486512;28;20024;-81
2022/07/29 00:11:59;;;;;;;9.07;4.75;;;15.40;99.90;;;;;;10484724;28;20059;-83
2022/07/29 00:16:59;;;;;;;12.05;4.32;;;15.40;99.90;;;;;;10491790;28;20083;-81
2022/07/29 00:22:01;;;;;;;7.35;3.95;;;15.40;99.90;;;;;;10487273;28;20480;-82
2022/07/29 00:27:01;;;;;;;10.18;4.90;;;15.50;99.90;;;;;;10482277;28;20052;-81
2022/07/29 00:32:02;;;;;;;7.40;4.25;;;15.60;99.90;;;;;;10490976;28;20052;-81
2022/07/29 00:37:03;;;;;;;6.18;4.18;;;15.70;99.90;;;;;;10491927;28;20045;-82
2022/07/29 00:42:04;;;;;;;5.43;3.45;;;15.70;99.90;;;;;;10493084;28;20036;-82
2022/07/29 00:47:05;;;;;;;6.30;3.03;;;15.80;99.90;;;;;;10495550;28;20033;-81
2022/07/29 00:52:08;;;;;;;5.28;3.00;;;15.80;99.90;;;;;;10494181;28;20063;-81
2022/07/29 00:57:09;;;;;;;6.47;2.90;;;15.80;99.90;;;;;;10491709;28;20045;-82
2022/07/29 01:02:10;;;;;;;5.72;2.85;;;15.90;99.90;;;;;;10495151;28;20048;-82
2022/07/29 01:07:11;;;;;;;5.00;2.83;;;15.90;99.60;;;;;;10493356;28;20044;-81
2022/07/29 01:12:16;;;;;;;5.32;2.92;;;15.80;99.10;;;;;;10492602;28;20695;-82
2022/07/29 01:17:36;;;;;;;3.97;2.60;;;15.90;99.00;;;;;;10500458;28;20399;-82
2022/07/29 01:22:46;;;;;;;5.20;3.10;;;15.90;98.60;;;;;;10487596;28;20032;-81
2022/07/29 01:27:59;;;;;;;4.30;2.90;;;15.90;97.80;;;;;;10490143;28;20033;-82
2022/07/29 01:33:05;;;;;;;5.28;2.63;;;15.90;97.50;;;;;;10496884;28;20052;-82
2022/07/29 01:38:20;;;;;;;4.18;2.60;;;16.00;97.00;;;;;;10491401;28;20036;-81
2022/07/29 01:43:36;;;;;;;7.03;2.87;;;15.90;96.70;;;;;;10476257;28;20024;-81
2022/07/29 01:48:36;;;;;;;;;;;15.90;96.40;;;;;;10493802;28;20040;-82
2022/07/29 01:53:53;;;;;;;3.65;2.85;;;16.00;96.40;;;;;;10490496;28;20544;-81
2022/07/29 01:58:56;;;;;;;5.65;2.40;;;15.90;96.30;;;;;;10490867;28;20491;-81
2022/07/29 02:03:58;;;;;;;5.10;2.45;;;15.90;95.90;;;;;;10493699;28;20090;-81
2022/07/29 02:09:00;;;;;;;5.57;2.30;;;16.00;95.60;;;;;;10490799;28;20033;-84
2022/07/29 02:14:01;;;;;;;4.57;2.10;;;16.00;95.10;;;;;;10491205;28;20676;-83
2022/07/29 02:19:04;;;;;;;4.32;2.25;;;16.10;95.10;;;;;;10493928;28;20052;-82
2022/07/29 02:24:05;;;;;;;3.63;1.98;;;16.10;94.60;;;;;;10488491;28;20036;-82
2022/07/29 02:29:08;;;;;;;7.70;2.35;;;16.10;94.40;;;;;;10488804;28;20086;-81
2022/07/29 02:34:11;;;;;;;3.47;2.10;;;16.10;94.10;;;;;;10489219;28;20396;-82
2022/07/29 02:39:14;;;;;;;5.72;2.25;;;16.20;93.90;;;;;;10487901;28;20040;-81
2022/07/29 02:44:20;;;;;;;3.30;2.10;;;16.20;93.40;;;;;;10486633;28;20087;-81
2022/07/29 02:49:20;;;;;;;;;;;16.20;93.30;;;;;;10492538;28;20020;-81
2022/07/29 02:54:46;;;;;;;6.82;1.70;;;16.20;92.90;;;;;;10487508;28;20405;-81
2022/07/29 02:59:52;;;;;;;3.90;1.85;;;16.20;92.70;;;;;;10518446;22;20109;-80
2022/07/29 03:04:55;;;;;;;6.47;1.80;;;16.30;92.40;;;;;;10541374;28;20019;-81
2022/07/29 03:09:57;;;;;;;5.20;2.20;;;16.30;92.20;;;;;;10567654;28;20020;-81
2022/07/29 03:14:59;;;;;;;4.82;2.13;;;16.30;92.20;;;;;;10571185;28;20444;-82
2022/07/29 03:20:00;;;;;;;5.15;1.90;;;16.30;91.70;;;;;;10565291;28;20023;-82
2022/07/29 03:25:08;;;;;;;3.88;1.92;;;16.40;92.00;;;;;;10568475;27;20032;-82
2022/07/29 03:30:11;;;;;;;4.95;1.92;;;16.50;91.40;;;;;;10563350;28;20039;-81
2022/07/29 03:35:11;;;;;;;4.03;1.80;;;16.50;91.40;;;;;;10571919;28;20506;-81
2022/07/29 03:40:17;;;;;;;4.32;1.63;;;16.60;91.10;;;;;;10569161;28;20114;-82
2022/07/29 03:45:19;;;;;;;3.60;2.00;;;16.60;91.10;;;;;;10569457;28;20023;-81
2022/07/29 03:50:21;;;;;;;4.05;1.92;;;16.50;91.00;;;;;;10567790;28;20451;-83
2022/07/29 03:55:22;;;;;;;4.43;2.17;;;16.60;91.20;;;;;;10568895;28;20036;-84
2022/07/29 04:00:25;;;;;;;4.45;1.60;;;16.60;91.30;;;;;;10565601;28;20052;-81
2022/07/29 04:05:25;;;;;;;5.53;1.85;;;16.60;91.30;;;;;;10569072;28;20425;-82
2022/07/29 04:10:26;;;;;;;4.80;2.58;;;16.60;91.30;;;;;;10568007;27;20027;-82
2022/07/29 04:15:28;;;;;;;6.05;1.98;;;16.60;91.40;;;;;;10558684;28;20532;-81
2022/07/29 04:20:29;;;;;;;3.15;2.13;;;16.70;91.50;;;;;;10569160;28;20496;-84
2022/07/29 04:25:29;;;;;;;4.70;2.38;;;16.70;91.40;;;;;;10559085;28;20088;-85
2022/07/29 04:30:31;;;;;;;4.03;1.77;;;16.80;91.70;;;;;;10563104;28;20126;-83
2022/07/29 04:35:37;;;;;;;2.00;1.75;;;17.00;91.10;;;;;;10568065;28;20032;-87
2022/07/29 04:40:37;;;;;;;2.17;1.42;;;17.20;90.70;;;;;;10560299;28;20053;-83
2022/07/29 04:45:38;;;;;;;10.77;2.50;;;17.40;90.80;;;;;;10569334;28;20020;-83
2022/07/29 04:50:39;;;;;;;3.95;1.85;;;17.60;90.50;;;;;;10566784;28;20161;-82
2022/07/29 04:55:40;;;;;;;5.93;2.35;;;17.80;90.50;;;;;;10569282;28;20032;-84
2022/07/29 05:00:40;;;;;;;3.90;1.65;;;18.00;90.40;;;;;;10567858;28;20044;-83
2022/07/29 05:05:42;;;;;;;3.10;1.90;;;18.10;90.20;;;;;;10569187;28;20557;-85
2022/07/29 05:10:42;;;;;;;3.97;2.42;;;18.30;90.50;;;;;;10569009;28;20032;-84
2022/07/29 05:15:43;;;;;;;2.60;2.00;;;18.40;90.10;;;;;;10568604;28;20040;-83
2022/07/29 05:20:43;;;;;;;3.50;1.80;;;18.60;90.10;;;;;;10569121;28;20035;-82
2022/07/29 05:25:44;;;;;;;6.10;2.30;;;18.70;89.70;;;;;;10574016;28;20030;-83
2022/07/29 05:30:45;;;;;;;3.92;2.00;;;18.70;89.90;;;;;;10575984;28;20031;-84
2022/07/29 05:35:45;;;;;;;2.70;1.90;;;18.90;90.40;;;;;;10575525;28;20041;-84
2022/07/29 05:40:46;;;;;;;3.03;2.28;;;19.00;88.90;;;;;;10570940;28;20035;-83
2022/07/29 05:45:47;;;;;;;4.47;1.85;;;19.10;89.50;;;;;;10575874;28;20023;-85
2022/07/29 05:50:47;;;;;;;3.08;2.03;;;19.20;89.60;;;;;;10575939;28;20026;-85
2022/07/29 05:55:48;;;;;;;6.13;2.22;;;19.50;90.10;;;;;;10574797;28;20478;-83
2022/07/29 06:00:49;;;;;;;3.40;2.03;;;19.60;89.80;;;;;;10575616;28;20410;-83
2022/07/29 06:05:50;;;;;;;4.20;2.20;;;19.70;89.10;;;;;;10574648;28;20020;-83
2022/07/29 06:10:50;;;;;;;4.07;2.08;;;19.70;89.90;;;;;;10575957;28;20056;-82
2022/07/29 06:15:51;;;;;;;5.97;1.88;;;19.80;89.30;;;;;;10574907;28;20115;-83
2022/07/29 06:20:52;;;;;;;4.03;2.05;;;20.00;88.90;;;;;;10574440;28;20050;-82
2022/07/29 06:25:53;;;;;;;5.72;2.22;;;20.10;88.90;;;;;;10574120;28;20494;-84
2022/07/29 06:30:54;;;;;;;3.70;2.40;;;20.30;88.00;;;;;;10573888;28;20024;-83
2022/07/29 06:35:54;;;;;;;5.50;2.50;;;20.50;87.10;;;;;;10571591;28;20067;-83
2022/07/29 06:41:09;;;;;;;6.72;2.70;;;20.50;87.50;;;;;;10574132;27;20019;-83
2022/07/29 06:46:13;;;;;;;6.10;2.67;;;20.70;86.20;;;;;;10574018;28;20034;-84
2022/07/29 06:51:13;;;;;;;3.42;2.28;;;20.90;87.70;;;;;;10573336;28;20477;-82
2022/07/29 06:56:14;;;;;;;3.22;2.15;;;21.10;86.30;;;;;;10573060;28;20126;-86
2022/07/29 07:01:15;;;;;;;5.53;2.45;;;21.40;84.90;;;;;;10570192;28;20634;-83
2022/07/29 07:06:16;;;;;;;3.75;2.03;;;21.60;86.10;;;;;;10571315;28;20015;-83
2022/07/29 07:11:17;;;;;;;9.15;2.97;;;22.10;85.10;;;;;;10571164;28;20028;-84
2022/07/29 07:16:17;;;;;;;4.22;2.83;;;23.20;80.90;;;;;;10569909;28;20421;-84
2022/07/29 07:21:18;;;;;;;10.80;2.65;;;23.80;78.40;;;;;;10570495;28;20111;-84
2022/07/29 07:26:18;;;;;;;5.53;3.00;;;23.80;76.90;;;;;;10560201;28;20019;-84
2022/07/29 07:31:19;;;;;;;4.95;2.63;;;24.60;78.30;;;;;;10566440;28;20027;-83
2022/07/29 07:36:20;;;;;;;3.45;2.42;;;25.20;73.30;;;;;;10567803;28;20036;-84
2022/07/29 07:41:21;;;;;;;7.20;2.55;;;24.40;75.40;;;;;;10567313;28;20467;-82
2022/07/29 07:46:21;;;;;;;5.00;2.45;;;24.40;76.30;;;;;;10566942;28;20035;-82
2022/07/29 07:51:22;;;;;;;4.80;2.50;;;24.20;76.30;;;;;;10568437;28;20036;-86
2022/07/29 07:56:23;;;;;;;5.82;2.50;;;24.30;76.70;;;;;;10568725;28;20032;-88
2022/07/29 08:01:23;;;;;;;7.63;2.40;;;24.60;74.80;;;;;;10566017;28;20059;-83
2022/07/29 08:06:24;;;;;;;3.03;2.50;;;24.70;74.80;;;;;;10568182;28;20027;-85
2022/07/29 08:11:26;;;;;;;4.30;2.50;;;25.00;75.10;;;;;;10569681;28;20036;-89
2022/07/29 08:16:27;;;;;;;3.78;2.42;;;25.40;73.70;;;;;;10565341;28;20391;-85
2022/07/29 08:21:29;;;;;;;4.68;2.42;;;25.20;73.60;;;;;;10568790;28;20048;-84
2022/07/29 08:26:30;;;;;;;4.03;2.65;;;24.90;73.50;;;;;;10568309;28;20035;-84
2022/07/29 08:31:31;;;;;;;4.32;2.53;;;24.60;73.30;;;;;;10570009;28;20024;-84
2022/07/29 08:36:33;;;;;;;4.75;2.70;;;24.70;74.30;;;;;;10569021;28;20109;-85
2022/07/29 08:41:35;;;;;;;4.32;2.22;;;25.20;75.30;;;;;;10570302;28;20030;-87
2022/07/29 08:47:46;;;;;;;;;;;;;;;;;;;;;
2022/07/29 08:52:49;;;;;;;3.75;2.30;;;26.10;71.10;;;;;;10532751;28;20104;-85
2022/07/29 08:57:50;;;;;;;3.63;2.33;;;26.10;73.20;;;;;;10568517;28;20043;-85
2022/07/29 09:02:57;;;;;;;4.40;2.22;;;26.40;72.00;;;;;;10576593;28;20491;-87
2022/07/29 09:07:58;;;;;;;8.55;2.65;;;26.50;70.30;;;;;;10573182;28;20352;-85
2022/07/29 09:12:59;;;;;;;6.93;2.58;;;26.90;70.40;;;;;;10575572;28;20471;-85
2022/07/29 09:18:01;;;;;;;4.97;2.10;;;27.30;68.40;;;;;;10572498;28;20608;-85
2022/07/29 09:23:08;;;;;;;5.00;2.75;;;27.20;71.10;;;;;;10575378;28;20805;-86
2022/07/29 09:28:11;;;;;;;5.80;2.65;;;27.30;67.80;;;;;;10576069;28;20026;-86
2022/07/29 09:33:11;;;;;;;4.40;2.72;;;27.30;68.40;;;;;;10574029;28;20071;-85
2022/07/29 09:38:13;;;;;;;4.18;2.65;;;27.30;67.50;;;;;;10575647;28;20084;-87
2022/07/29 09:43:14;;;;;;;4.20;2.47;;;27.10;67.90;;;;;;10574819;28;20020;-85
2022/07/29 09:48:17;;;;;;;5.25;2.80;;;26.80;68.50;;;;;;10572709;28;20721;-85
2022/07/29 09:53:36;;;;;;;5.25;3.05;;;27.00;69.00;;;;;;10575747;28;20073;-85
2022/07/29 09:58:37;;;;;;;5.13;2.63;;;27.60;70.80;;;;;;10573971;28;20058;-87
2022/07/29 10:03:53;;;;;;;7.93;2.95;;;27.90;70.70;;;;;;10572819;28;20607;-87
2022/07/29 10:08:54;;;;;;;6.85;2.85;;;27.70;66.70;;;;;;10571885;28;20538;-89
2022/07/29 10:13:55;;;;;;;3.85;2.92;;;27.40;67.00;;;;;;10567798;28;20027;-86
2022/07/29 10:18:56;;;;;;;6.70;3.10;;;26.90;69.20;;;;;;10568568;28;20046;-86
2022/07/29 10:23:58;;;;;;;12.52;3.67;;;27.00;67.70;;;;;;10570148;28;20027;-87
2022/07/29 10:29:00;;;;;;;6.25;3.20;;;27.10;68.30;;;;;;10572705;28;20035;-85
2022/07/29 10:34:28;;;;;;;7.60;2.72;;;27.50;69.50;;;;;;10571310;28;20533;-86
2022/07/29 10:39:59;;;;;;;4.20;3.20;;;28.00;69.40;;;;;;10572016;28;20062;-87
2022/07/29 10:45:00;;;;;;;4.03;2.90;;;27.40;67.40;;;;;;10566070;27;20093;-85
2022/07/29 10:50:05;;;;;;;5.63;3.05;;;26.70;68.70;;;;;;10568210;28;20023;-86
2022/07/29 10:55:06;;;;;;;4.13;3.47;;;26.50;70.10;;;;;;10568281;28;20023;-87
2022/07/29 11:00:08;;;;;;;3.45;2.80;;;27.00;69.00;;;;;;10563358;28;20052;-86
2022/07/29 11:05:15;;;;;;;4.93;3.00;;;28.00;67.90;;;;;;10565193;28;20486;-88
2022/07/29 11:10:15;;;;;;;4.93;3.08;;;28.20;65.00;;;;;;10568144;28;20026;-85
2022/07/29 11:15:18;;;;;;;3.22;2.92;;;28.30;66.00;;;;;;10564521;28;20368;-87
2022/07/29 11:20:39;;;;;;;5.68;2.78;;;28.20;65.60;;;;;;10565745;28;20019;-87
2022/07/29 11:25:39;;;;;;;3.70;2.95;;;27.40;65.80;;;;;;10562492;28;20467;-87
2022/07/29 11:30:51;;;;;;;4.47;3.10;;;27.30;68.30;;;;;;10567067;27;20031;-86
2022/07/29 11:36:11;;;;;;;4.53;3.22;;;27.40;66.50;;;;;;10564923;27;20143;-87
2022/07/29 11:41:22;;;;;;;3.20;2.83;;;27.10;67.70;;;;;;10571068;27;20024;-88
2022/07/29 11:46:46;;;;;;;6.25;3.25;;;26.90;69.50;;;;;;10554776;28;20031;-86
2022/07/29 11:52:03;;;;;;;4.00;2.70;;;27.00;68.10;;;;;;10566688;28;20023;-87
2022/07/29 11:57:06;;;;;;;3.38;2.85;;;27.00;68.20;;;;;;10563677;28;20285;-86
2022/07/29 12:02:08;;;;;;;3.42;2.92;;;27.40;71.10;;;;;;10569329;28;20126;-85
2022/07/29 12:07:08;;;;;;;5.45;3.25;;;28.40;69.40;;;;;;10561853;28;20024;-88
2022/07/29 12:12:10;;;;;;;6.05;3.55;;;28.60;67.10;;;;;;10570173;28;20039;-86
2022/07/29 12:17:26;;;;;;;4.65;2.95;;;28.60;65.30;;;;;;10558173;28;20402;-86
2022/07/29 12:22:32;;;;;;;3.67;2.97;;;28.70;66.50;;;;;;10570558;28;20028;-87
2022/07/29 12:27:32;;;;;;;4.25;3.20;;;28.20;65.00;;;;;;10568479;28;20126;-89
2022/07/29 12:32:42;;;;;;;4.43;2.97;;;28.20;66.70;;;;;;10560103;28;20432;-88
2022/07/29 12:37:44;;;;;;;3.65;2.53;;;28.10;65.70;;;;;;10571329;28;20059;-87
2022/07/29 12:43:07;;;;;;;3.78;2.97;;;27.80;66.40;;;;;;10578026;28;20023;-86
2022/07/29 12:48:08;;;;;;;5.35;3.08;;;27.70;66.70;;;;;;10573345;27;20035;-88
2022/07/29 12:53:11;;;;;;;4.72;3.05;;;27.40;66.40;;;;;;10571410;28;20382;-85
2022/07/29 12:58:12;;;;;;;4.10;3.20;;;27.10;67.20;;;;;;10578016;28;20059;-86
2022/07/29 13:03:12;;;;;;;6.75;3.33;;;27.10;67.60;;;;;;10576185;28;20110;-87
2022/07/29 13:08:20;;;;;;;3.38;2.92;;;27.00;68.20;;;;;;10575105;28;20016;-85
2022/07/29 13:13:21;;;;;;;4.35;2.85;;;26.80;68.40;;;;;;10574270;28;20585;-87
2022/07/29 13:18:30;;;;;;;5.85;3.38;;;26.80;68.50;;;;;;10571223;28;20051;-86
2022/07/29 13:23:39;;;;;;;5.07;3.13;;;26.90;68.00;;;;;;10572571;28;20028;-89
2022/07/29 13:28:40;;;;;;;6.22;3.42;;;26.80;67.80;;;;;;10575452;28;20387;-90
2022/07/29 13:33:40;;;;;;;4.10;2.90;;;26.90;67.20;;;;;;10576234;28;20034;-86
2022/07/29 13:38:41;;;;;;;8.52;3.25;;;26.90;67.50;;;;;;10576461;28;20088;-88
2022/07/29 13:43:43;;;;;;;6.55;3.15;;;27.00;67.80;;;;;;10572938;28;20118;-85
2022/07/29 13:48:44;;;;;;;4.72;3.15;;;27.00;69.00;;;;;;10576253;28;20367;-86
2022/07/29 13:53:44;;;;;;;4.70;2.92;;;26.90;67.40;;;;;;10573283;28;20023;-87
2022/07/29 13:58:45;;;;;;;4.90;3.47;;;26.80;68.90;;;;;;10569468;28;20056;-87
2022/07/29 14:03:46;;;;;;;8.70;3.78;;;26.80;69.90;;;;;;10572618;28;20028;-86
2022/07/29 14:08:46;;;;;;;6.20;3.55;;;26.70;69.50;;;;;;10571793;28;20881;-86
2022/07/29 14:13:48;;;;;;;4.80;3.53;;;26.60;70.20;;;;;;10574275;28;20503;-84
2022/07/29 14:18:48;;;;;;;4.80;3.60;;;27.00;69.70;;;;;;10572866;28;20040;-88
2022/07/29 14:23:49;;;;;;;5.07;3.17;;;27.20;68.00;;;;;;10574820;28;20035;-87
2022/07/29 14:28:49;;;;;;;5.32;3.60;;;26.80;69.10;;;;;;10566431;28;20031;-86
2022/07/29 14:33:50;;;;;;;4.57;3.63;;;27.00;69.40;;;;;;10567760;28;20031;-86
2022/07/29 14:38:51;;;;;;;10.18;4.45;;;27.20;70.40;;;;;;10571926;28;20039;-90
2022/07/29 14:43:53;;;;;;;7.07;3.08;;;27.40;68.20;;;;;;10574122;28;20118;-85
2022/07/29 14:48:53;;;;;;;4.75;3.03;;;27.60;66.70;;;;;;10557302;28;20027;-87
2022/07/29 14:53:55;;;;;;;6.28;3.22;;;27.90;67.30;;;;;;10566300;28;20459;-86
2022/07/29 14:58:57;;;;;;;5.28;3.33;;;28.10;66.80;;;;;;10569497;28;20047;-85
2022/07/29 15:03:57;;;;;;;5.97;3.70;;;27.50;66.60;;;;;;10571716;28;20051;-85
2022/07/29 15:08:58;;;;;;;7.03;3.92;;;27.10;67.80;;;;;;10570759;28;20035;-85
2022/07/29 15:13:58;;;;;;;3.42;3.10;;;27.00;68.60;;;;;;10570572;28;20418;-92
2022/07/29 15:18:59;;;;;;;5.55;3.72;;;26.80;68.60;;;;;;10561501;28;20069;-87
2022/07/29 15:24:00;;;;;;;5.93;3.65;;;26.70;67.60;;;;;;10563992;28;20076;-87
2022/07/29 15:29:00;;;;;;;7.20;4.25;;;26.60;69.00;;;;;;10570405;28;20035;-85
2022/07/29 15:34:01;;;;;;;5.15;3.78;;;26.40;70.60;;;;;;10569237;28;20035;-85
2022/07/29 15:39:02;;;;;;;3.97;3.38;;;26.20;71.00;;;;;;10568185;28;20036;-85
2022/07/29 15:44:02;;;;;;;8.07;3.72;;;26.00;72.00;;;;;;10567924;28;20042;-84
2022/07/29 15:49:04;;;;;;;8.23;3.92;;;25.90;72.00;;;;;;10565193;28;20038;-85
2022/07/29 15:54:05;;;;;;;8.07;3.78;;;25.90;73.40;;;;;;10567986;28;20039;-84
2022/07/29 15:59:06;;;;;;;7.30;4.03;;;25.70;72.10;;;;;;10568175;28;20529;-85
2022/07/29 16:04:06;;;;;;;5.72;4.03;;;25.50;72.50;;;;;;10568366;28;20023;-86
2022/07/29 16:09:07;;;;;;;6.18;4.00;;;25.40;72.80;;;;;;10563307;28;20024;-86
2022/07/29 16:14:10;;;;;;;5.90;3.65;;;25.20;72.80;;;;;;10566183;28;20034;-84
2022/07/29 16:19:11;;;;;;;6.47;3.80;;;25.00;72.80;;;;;;10563565;28;20032;-83
2022/07/29 16:24:11;;;;;;;4.95;3.42;;;24.90;73.30;;;;;;10570466;28;20044;-85
2022/07/29 16:29:12;;;;;;;6.82;3.50;;;24.80;75.40;;;;;;10563044;28;20602;-83
2022/07/29 16:34:13;;;;;;;6.20;3.83;;;24.70;74.70;;;;;;10567794;28;20034;-84
2022/07/29 16:39:13;;;;;;;6.47;4.38;;;24.60;77.50;;;;;;10543079;28;20373;-87
2022/07/29 16:44:16;;;;;;;5.45;3.65;;;24.40;78.10;;;;;;10565038;28;20378;-83
2022/07/29 16:49:16;;;;;;;7.43;4.15;;;24.30;77.50;;;;;;10558236;28;20160;-82
2022/07/29 16:54:17;;;;;;;6.88;4.00;;;24.20;78.50;;;;;;10568683;28;20061;-86
2022/07/29 16:59:18;;;;;;;7.95;5.15;;;24.10;80.40;;;;;;10563610;28;20051;-83
2022/07/29 17:04:18;;;;;;;7.15;4.38;;;23.90;78.70;;;;;;10561468;28;20035;-83
2022/07/29 17:09:19;;;;;;;7.93;4.68;;;23.90;79.50;;;;;;10566192;28;20043;-84
2022/07/29 17:14:25;;;;;;;7.25;4.88;;;23.90;82.00;;;;;;10565845;28;20523;-83
2022/07/29 17:19:25;;;;;;;;;;;23.80;85.80;;;;;;10567098;28;20024;-83
2022/07/29 17:24:26;;;;;;;8.65;5.38;;;23.50;90.00;;;;;;10569915;28;19912;-83
2022/07/29 17:29:27;;;;;;;8.43;5.95;;;22.80;91.50;;;;;;10571270;28;20076;-81
2022/07/29 17:34:28;;;;;;;9.35;6.40;;;22.30;95.90;;;;;;10567661;28;20065;-81
2022/07/29 17:39:29;;;;;;;10.07;6.57;;;21.80;99.90;;;;;;10572705;28;20094;-80
2022/07/29 17:44:30;;;;;;;8.30;6.03;;;21.30;99.90;;;;;;10570716;28;20042;-81
2022/07/29 17:49:31;;;;;;;10.00;6.85;;;21.00;99.90;;;;;;10575658;28;20035;-81
2022/07/29 17:54:32;;;;;;;10.40;7.10;;;20.70;99.90;;;;;;10568327;28;20379;-81
2022/07/29 17:59:32;;;;;;;9.63;6.20;;;20.70;99.90;;;;;;10571368;28;20501;-81
2022/07/29 18:04:33;;;;;;;13.55;6.30;;;20.50;99.90;;;;;;10575173;28;20043;-81
2022/07/29 18:09:33;;;;;;;7.38;5.63;;;20.50;99.90;;;;;;10573237;28;20964;-80
2022/07/29 18:14:34;;;;;;;8.10;5.55;;;20.40;99.90;;;;;;10573208;28;20046;-81
2022/07/29 18:19:35;;;;;;;6.88;6.18;;;20.30;99.90;;;;;;10573415;28;20335;-81
2022/07/29 18:24:35;;;;;;;8.82;6.05;;;20.20;99.90;;;;;;10569363;28;20467;-81
2022/07/29 18:29:36;;;;;;;6.45;5.63;;;20.10;99.90;;;;;;10573168;28;20042;-80
2022/07/29 18:34:36;;;;;;;8.18;6.05;;;20.00;99.90;;;;;;10572847;28;20382;-81
2022/07/29 18:39:37;;;;;;;6.20;5.32;;;19.90;99.90;;;;;;10572918;28;20390;-82
2022/07/29 18:44:37;;;;;;;9.50;6.40;;;19.80;99.90;;;;;;10563076;28;20699;-89
2022/07/29 18:49:38;;;;;;;14.05;6.63;;;19.60;99.90;;;;;;10560124;28;20031;-84
2022/07/29 18:54:39;;;;;;;9.93;7.40;;;19.30;99.90;;;;;;10566109;28;20040;-81
2022/07/29 18:59:39;;;;;;;10.93;7.88;;;19.00;99.90;;;;;;10557988;28;20051;-82
2022/07/29 19:04:40;;;;;;;10.90;7.75;;;18.70;99.90;;;;;;10572451;28;20118;-81
2022/07/29 19:09:40;;;;;;;13.25;9.13;;;18.50;99.90;;;;;;10569375;28;20024;-82
2022/07/29 19:14:42;;;;;;;18.38;9.45;;;18.50;99.90;;;;;;10572435;28;20248;-81
2022/07/29 19:19:43;;;;;;;16.00;9.50;;;18.40;99.90;;;;;;10569662;28;20491;-81
2022/07/29 19:24:44;;;;;;;13.18;9.82;;;18.40;99.90;;;;;;10571665;28;20027;-81
2022/07/29 19:29:44;;;;;;;12.77;9.80;;;18.40;99.90;;;;;;10564210;28;20032;-81
2022/07/29 19:35:22;;;;;;;20.05;10.32;;;18.30;99.90;;;;;;10561691;28;20395;-82
2022/07/29 19:40:06;;;;;;;16.33;10.77;;;18.30;99.90;;;;;;10567689;28;20073;-81
2022/07/29 19:45:07;;;;;;;16.70;10.98;;;18.30;99.90;;;;;;10567045;28;20172;-81
2022/07/29 19:50:09;;;;;;;16.65;11.18;;;18.30;99.90;;;;;;10564626;28;20043;-81
2022/07/29 19:55:09;;;;;;;11.93;9.63;;;18.30;99.90;;;;;;10570086;28;20068;-83
2022/07/29 20:00:11;;;;;;;18.88;11.98;;;18.50;99.90;;;;;;10566389;28;20080;-81
2022/07/29 20:05:12;;;;;;;17.35;10.70;;;18.50;99.90;;;;;;10554769;28;20823;-82
2022/07/29 20:10:13;;;;;;;13.07;9.75;;;18.50;99.90;;;;;;10569072;28;20039;-82
2022/07/29 20:15:14;;;;;;;12.18;9.18;;;18.70;99.90;;;;;;10567142;28;20036;-82
2022/07/29 20:20:15;;;;;;;14.20;9.65;;;18.80;99.90;;;;;;10565336;28;20442;-81
2022/07/29 20:25:15;;;;;;;17.08;10.98;;;18.80;99.90;;;;;;10569798;28;20038;-81
2022/07/29 20:30:16;;;;;;;16.40;11.40;;;18.80;99.90;;;;;;10567048;28;20173;-81
2022/07/29 20:35:16;;;;;;;17.85;12.55;;;18.80;99.90;;;;;;10563387;28;20812;-84
2022/07/29 20:40:17;;;;;;;20.20;13.23;;;18.80;99.90;;;;;;10568290;28;20039;-84
2022/07/29 20:45:18;;;;;;;22.70;14.63;;;18.60;99.90;;;;;;10564650;28;20320;-84
2022/07/29 20:50:21;;;;;;;27.63;16.55;;;18.30;99.90;;;;;;10570814;28;20030;-83
2022/07/29 20:55:22;;;;;;;24.88;17.05;;;18.20;99.90;;;;;;10569615;28;20036;-83
2022/07/29 21:00:22;;;;;;;25.13;16.80;;;18.10;99.90;;;;;;10575532;28;20495;-82
2022/07/29 21:05:23;;;;;;;29.10;18.25;;;17.90;99.90;;;;;;10578841;28;20023;-83
2022/07/29 21:10:24;;;;;;;26.88;17.88;;;17.80;99.90;;;;;;10573372;28;20036;-83
2022/07/29 21:15:26;;;;;;;27.52;19.83;;;17.90;99.90;;;;;;10576492;28;20042;-82
2022/07/29 21:20:27;;;;;;;29.23;19.85;;;18.00;99.90;;;;;;10576858;28;20028;-83
2022/07/29 21:25:28;;;;;;;32.13;20.88;;;18.00;99.90;;;;;;10575431;28;20035;-82
2022/07/29 21:30:28;;;;;;;36.65;22.70;;;18.00;99.90;;;;;;10576117;28;20036;-82
2022/07/29 21:35:29;;;;;;;31.67;21.83;;;18.00;99.90;;;;;;10574813;28;20058;-82
2022/07/29 21:40:30;;;;;;;32.90;22.85;;;18.00;99.90;;;;;;10575875;28;20042;-82
2022/07/29 21:45:30;;;;;;;35.80;22.85;;;17.80;99.90;;;;;;10574715;28;20042;-82
2022/07/29 21:50:32;;;;;;;30.00;20.85;;;17.80;99.90;;;;;;10576750;28;20696;-84
2022/07/29 21:55:33;;;;;;;29.73;20.10;;;17.80;99.90;;;;;;10572403;28;20132;-82
2022/07/29 22:00:34;;;;;;;31.25;21.67;;;17.90;99.90;;;;;;10574650;28;20435;-82
2022/07/29 22:05:35;;;;;;;26.13;18.70;;;18.00;99.90;;;;;;10564083;28;20430;-83
2022/07/29 22:10:35;;;;;;;27.30;18.38;;;18.10;99.90;;;;;;10573434;28;20027;-82
2022/07/29 22:15:36;;;;;;;25.45;18.15;;;18.10;99.90;;;;;;10574619;28;20149;-83
2022/07/29 22:20:37;;;;;;;21.35;16.38;;;18.10;99.90;;;;;;10574859;28;20177;-84
2022/07/29 22:25:37;;;;;;;19.40;14.57;;;18.10;99.90;;;;;;10573153;28;20032;-83
2022/07/29 22:30:38;;;;;;;22.80;16.50;;;18.10;99.90;;;;;;10573177;28;20027;-82
2022/07/29 22:35:38;;;;;;;23.05;15.65;;;18.00;99.90;;;;;;10572297;28;20394;-82
2022/07/29 22:40:39;;;;;;;22.05;15.15;;;18.00;99.90;;;;;;10570484;28;20088;-82
2022/07/29 22:45:40;;;;;;;20.60;13.93;;;18.10;99.90;;;;;;10569745;28;20063;-82
2022/07/29 22:50:41;;;;;;;22.85;13.98;;;18.00;99.90;;;;;;10571824;28;20135;-82
2022/07/29 22:55:41;;;;;;;18.63;12.98;;;18.00;99.90;;;;;;10567603;28;20035;-82
2022/07/29 23:00:42;;;;;;;21.27;14.05;;;18.10;99.90;;;;;;10572483;28;20051;-83
2022/07/29 23:05:42;;;;;;;20.80;13.18;;;18.10;99.90;;;;;;10573544;28;20147;-81
2022/07/29 23:10:43;;;;;;;17.13;11.90;;;18.20;99.90;;;;;;10569972;28;20470;-84
2022/07/29 23:15:44;;;;;;;17.08;12.00;;;18.10;99.90;;;;;;10568583;28;20043;-82
2022/07/29 23:20:44;;;;;;;19.50;12.45;;;18.20;99.90;;;;;;10565800;28;20028;-82
2022/07/29 23:25:45;;;;;;;26.55;17.08;;;18.20;99.90;;;;;;10568040;28;20114;-82
2022/07/29 23:30:46;;;;;;;25.95;15.73;;;18.20;99.90;;;;;;10570779;28;20576;-82
2022/07/29 23:35:46;;;;;;;14.40;9.75;;;18.20;99.90;;;;;;10558889;28;20023;-84
2022/07/29 23:40:49;;;;;;;10.63;8.35;;;18.20;99.90;;;;;;10569603;28;20032;-84
2022/07/29 23:45:50;;;;;;;13.27;9.40;;;18.20;99.90;;;;;;10570836;28;20653;-83
2022/07/29 23:50:50;;;;;;;15.98;9.35;;;18.20;99.90;;;;;;10570367;28;20043;-82
2022/07/29 23:55:51;;;;;;;16.63;10.88;;;18.20;99.90;;;;;;10570343;28;20498;-83
